Time;durP1;ratioP1;P1;durP2;ratioP2;P2;SDS_P1;SDS_P2;PMS_P1;PMS_P2;Temp;Humidity;BMP_temperature;BMP_pressure;BME280_temperature;BME280_humidity;BME280_pressure;Samples;Min_cycle;Max_cycle;Signal;HPM_P1;HPM_P2
2021/12/05 00:22:45;;;;;;;14.23;4.20;;;;;;;;;;5026128;28;20018;-81
2021/12/05 00:25:14;;;;;;;18.63;4.22;;;;;;;;;;5022151;28;20034;-80
2021/12/05 00:27:49;;;;;;;14.85;4.40;;;;;;;;;;5038178;28;20065;-81
2021/12/05 00:33:04;;;;;;;16.58;4.38;;;;;;;;;;5034073;28;20054;-78
2021/12/05 00:41:25;;;;;;;12.10;4.28;;;;;;;;;;5024587;28;20564;-81
2021/12/05 01:05:44;;;;;;;17.58;4.72;;;;;;;;;;5021236;28;20061;-79
2021/12/05 01:10:57;;;;;;;10.60;4.18;;;;;;;;;;5031834;28;20038;-81
2021/12/05 01:15:52;;;;;;;11.93;4.43;;;;;;;;;;5021520;28;20042;-81
2021/12/05 01:18:20;;;;;;;15.60;5.03;;;;;;;;;;5021120;28;20327;-79
2021/12/05 01:20:52;;;;;;;15.18;4.65;;;;;;;;;;5021495;28;20046;-78
2021/12/05 01:31:11;;;;;;;13.68;3.92;;;;;;;;;;5026144;28;20038;-80
2021/12/05 01:33:51;;;;;;;17.25;4.68;;;;;;;;;;5006127;28;20053;-79
2021/12/05 01:36:31;;;;;;;18.75;4.25;;;;;;;;;;5020779;28;20038;-81
2021/12/05 01:42:17;;;;;;;9.68;3.55;;;;;;;;;;5020209;28;20042;-80
2021/12/05 02:35:21;;;;;;;12.10;3.20;;;;;;;;;;5023431;28;20434;-80
2021/12/05 02:38:27;;;;;;;9.00;2.63;;;;;;;;;;5009058;28;20061;-80
2021/12/05 02:43:33;;;;;;;12.57;2.70;;;;;;;;;;5034343;28;20070;-81
2021/12/05 02:46:02;;;;;;;9.23;2.58;;;;;;;;;;5038486;28;20038;-80
2021/12/05 02:48:30;;;;;;;9.40;2.60;;;;;;;;;;5008448;28;20037;-82
2021/12/05 02:50:57;;;;;;;12.80;2.90;;;;;;;;;;5007436;28;20038;-82
2021/12/05 02:53:33;;;;;;;10.40;3.65;;;;;;;;;;5024550;28;20525;-80
2021/12/05 02:55:59;;;;;;;11.73;2.53;;;;;;;;;;5012726;28;20097;-80
2021/12/05 02:58:33;;;;;;;14.20;3.08;;;;;;;;;;5027215;28;20068;-81
2021/12/05 03:03:26;;;;;;;10.43;3.33;;;;;;;;;;5022428;28;20038;-80
2021/12/05 03:05:56;;;;;;;24.35;3.40;;;;;;;;;;5008580;28;20042;-80
2021/12/05 03:08:22;;;;;;;16.02;3.35;;;;;;;;;;5027203;28;20452;-81
2021/12/05 03:10:48;;;;;;;14.57;2.90;;;;;;;;;;5005736;28;20532;-80
2021/12/05 03:13:14;;;;;;;18.50;2.95;;;;;;;;;;5008138;28;20041;-80
2021/12/05 03:15:40;;;;;;;10.40;3.03;;;;;;;;;;5007902;28;20048;-79
2021/12/05 03:18:06;;;;;;;10.75;3.38;;;;;;;;;;5005736;28;20042;-79
2021/12/05 03:20:32;;;;;;;13.15;2.88;;;;;;;;;;5022551;28;20045;-81
2021/12/05 03:22:58;;;;;;;9.27;2.83;;;;;;;;;;5021899;28;20061;-80
2021/12/05 03:25:25;;;;;;;19.27;3.38;;;;;;;;;;5023444;28;20331;-80
2021/12/05 03:27:51;;;;;;;13.85;3.15;;;;;;;;;;5005185;28;20041;-82
2021/12/05 03:30:19;;;;;;;11.00;2.97;;;;;;;;;;5035037;28;20045;-79
2021/12/05 03:32:48;;;;;;;15.45;3.50;;;;;;;;;;5017836;28;20058;-81
2021/12/05 03:35:14;;;;;;;9.15;2.85;;;;;;;;;;5018731;28;20478;-80
2021/12/05 03:37:40;;;;;;;12.00;3.50;;;;;;;;;;5018484;28;20056;-81
2021/12/05 03:40:06;;;;;;;13.10;3.35;;;;;;;;;;5020982;28;20042;-82
2021/12/05 03:42:32;;;;;;;13.88;3.22;;;;;;;;;;5002466;28;20038;-80
2021/12/05 03:44:58;;;;;;;8.38;2.85;;;;;;;;;;5019371;28;20069;-83
2021/12/05 03:47:28;;;;;;;18.40;3.30;;;;;;;;;;5005103;28;20104;-82
2021/12/05 03:49:54;;;;;;;9.50;2.97;;;;;;;;;;5021080;28;20358;-83
2021/12/05 03:52:20;;;;;;;14.60;3.20;;;;;;;;;;5020330;28;20041;-82
2021/12/05 03:54:46;;;;;;;10.00;2.63;;;;;;;;;;5020527;28;20034;-83
2021/12/05 03:57:12;;;;;;;10.82;3.00;;;;;;;;;;5021655;28;20041;-82
2021/12/05 03:59:38;;;;;;;8.05;2.30;;;;;;;;;;5003858;28;20055;-82
2021/12/05 04:02:05;;;;;;;17.00;2.90;;;;;;;;;;5021354;28;20033;-81
2021/12/05 04:04:31;;;;;;;12.90;2.67;;;;;;;;;;5020432;28;20433;-82
2021/12/05 04:06:57;;;;;;;11.00;2.85;;;;;;;;;;5006182;28;20045;-80
2021/12/05 04:09:23;;;;;;;8.65;2.58;;;;;;;;;;5021834;28;20065;-81
2021/12/05 04:11:57;;;;;;;9.18;2.40;;;;;;;;;;5010551;28;20038;-80
2021/12/05 04:14:24;;;;;;;9.38;2.83;;;;;;;;;;5009012;28;20061;-81
2021/12/05 04:16:50;;;;;;;10.23;2.58;;;;;;;;;;5020870;28;20083;-80
2021/12/05 04:19:16;;;;;;;9.02;2.35;;;;;;;;;;5031698;28;20066;-81
2021/12/05 04:21:42;;;;;;;12.50;2.53;;;;;;;;;;5020667;28;20045;-81
2021/12/05 04:24:08;;;;;;;7.57;2.22;;;;;;;;;;5006281;28;20042;-78
2021/12/05 04:26:35;;;;;;;12.32;2.55;;;;;;;;;;5007410;28;20072;-82
2021/12/05 04:29:01;;;;;;;10.38;2.22;;;;;;;;;;5004432;28;20582;-80
2021/12/05 04:31:27;;;;;;;9.10;2.20;;;;;;;;;;5020867;28;20050;-80
2021/12/05 04:33:53;;;;;;;10.02;2.17;;;;;;;;;;5020394;28;20061;-81
2021/12/05 04:36:19;;;;;;;11.68;2.28;;;;;;;;;;5004022;28;20056;-80
2021/12/05 04:38:45;;;;;;;15.30;2.65;;;;;;;;;;5020324;28;20100;-81
2021/12/05 04:41:11;;;;;;;11.43;2.67;;;;;;;;;;5027798;28;20104;-80
2021/12/05 04:43:38;;;;;;;10.88;2.25;;;;;;;;;;5011114;28;20038;-79
2021/12/05 04:46:24;;;;;;;10.15;2.63;;;;;;;;;;5004886;28;20033;-79
2021/12/05 04:48:51;;;;;;;8.18;2.15;;;;;;;;;;5019872;28;20045;-80
2021/12/05 04:51:18;;;;;;;11.18;2.50;;;;;;;;;;5020920;28;20409;-81
2021/12/05 04:53:44;;;;;;;14.93;2.58;;;;;;;;;;5020459;28;20150;-81
2021/12/05 04:56:10;;;;;;;8.48;2.13;;;;;;;;;;5004550;28;20077;-79
2021/12/05 04:58:36;;;;;;;6.88;2.33;;;;;;;;;;5020941;28;20454;-80
2021/12/05 05:01:03;;;;;;;8.75;2.15;;;;;;;;;;5026235;28;20022;-79
2021/12/05 05:03:29;;;;;;;16.42;3.28;;;;;;;;;;5038678;28;20033;-80
2021/12/05 05:06:08;;;;;;;7.25;2.20;;;;;;;;;;5008012;28;20042;-82
2021/12/05 05:08:34;;;;;;;8.13;2.28;;;;;;;;;;5021291;28;20038;-81
2021/12/05 05:11:01;;;;;;;12.90;2.53;;;;;;;;;;5019704;28;20052;-81
2021/12/05 05:13:27;;;;;;;8.30;2.67;;;;;;;;;;5003397;28;20038;-82
2021/12/05 05:15:54;;;;;;;13.82;2.30;;;;;;;;;;5020601;28;20042;-82
2021/12/05 05:18:22;;;;;;;9.10;2.75;;;;;;;;;;5026468;28;20037;-82
2021/12/05 05:20:58;;;;;;;9.15;2.42;;;;;;;;;;5020665;28;20095;-81
2021/12/05 05:42:31;;;;;;;10.35;2.75;;;;;;;;;;5024395;28;20115;-79
2021/12/05 05:50:14;;;;;;;8.23;2.65;;;;;;;;;;5037644;28;20084;-80
2021/12/05 05:52:40;;;;;;;10.18;2.33;;;;;;;;;;5025718;28;20046;-80
2021/12/05 05:55:07;;;;;;;4.32;1.42;;;;;;;;;;5023166;28;20389;-81
2021/12/05 05:57:42;;;;;;;6.93;2.08;;;;;;;;;;5023539;28;20034;-81
2021/12/05 06:00:16;;;;;;;11.68;2.05;;;;;;;;;;5007760;28;20038;-83
2021/12/05 06:05:28;;;;;;;6.97;2.13;;;;;;;;;;5022760;28;20763;-81
2021/12/05 06:07:54;;;;;;;8.00;1.58;;;;;;;;;;5006198;28;20120;-80
2021/12/05 06:10:21;;;;;;;8.20;2.40;;;;;;;;;;5022875;28;20045;-81
2021/12/05 06:12:47;;;;;;;6.78;1.85;;;;;;;;;;5022940;28;20036;-81
2021/12/05 06:15:13;;;;;;;6.65;2.03;;;;;;;;;;5022197;28;20347;-81
2021/12/05 06:17:39;;;;;;;7.57;1.77;;;;;;;;;;5006971;28;20386;-81
2021/12/05 06:20:06;;;;;;;7.93;2.92;;;;;;;;;;5009093;28;20120;-80
2021/12/05 06:22:32;;;;;;;15.23;2.10;;;;;;;;;;5016057;28;20041;-80
2021/12/05 06:24:59;;;;;;;9.27;2.20;;;;;;;;;;5031592;28;20052;-81
2021/12/05 06:27:25;;;;;;;9.00;2.17;;;;;;;;;;5030294;28;20037;-82
2021/12/05 06:29:59;;;;;;;8.90;2.60;;;;;;;;;;5028411;28;20041;-82
2021/12/05 06:36:47;;;;;;;9.30;2.03;;;;;;;;;;5024515;28;20080;-82
2021/12/05 06:38:11;;;;;;;11.68;2.10;;;;;;;;;;5022594;28;20038;-83
2021/12/05 06:45:56;;;;;;;11.35;1.88;;;;;;;;;;5023700;28;20557;-82
2021/12/05 06:48:42;;;;;;;5.72;1.85;;;;;;;;;;5005522;28;20049;-81
2021/12/05 06:51:09;;;;;;;5.95;1.50;;;;;;;;;;5007596;28;20052;-81
2021/12/05 06:53:35;;;;;;;5.72;1.75;;;;;;;;;;5022099;28;20045;-81
2021/12/05 06:56:01;;;;;;;5.57;1.50;;;;;;;;;;5018320;28;20030;-81
2021/12/05 06:58:27;;;;;;;7.93;1.48;;;;;;;;;;5018333;28;20030;-81
2021/12/05 07:00:53;;;;;;;8.80;1.85;;;;;;;;;;5003334;28;20092;-82
2021/12/05 07:03:19;;;;;;;4.50;1.60;;;;;;;;;;5022784;28;20049;-80
2021/12/05 07:08:33;;;;;;;7.03;1.55;;;;;;;;;;5027517;28;20073;-81
2021/12/05 07:11:06;;;;;;;6.22;1.67;;;;;;;;;;5007138;28;20037;-80
2021/12/05 07:16:22;;;;;;;7.60;1.73;;;;;;;;;;5021294;28;20100;-79
2021/12/05 07:19:05;;;;;;;6.55;1.85;;;;;;;;;;5024371;28;20444;-79
2021/12/05 07:21:51;;;;;;;8.77;2.33;;;;;;;;;;5010648;28;20080;-81
2021/12/05 07:40:23;;;;;;;13.55;2.88;;;;;;;;;;5017657;28;20045;-80
2021/12/05 07:40:29;;;;;;;8.85;1.63;;;;;;;;;;5017357;28;20046;-79
2021/12/05 07:43:05;;;;;;;5.47;1.55;;;;;;;;;;5019257;28;20046;-79
2021/12/05 07:45:36;;;;;;;7.60;2.03;;;;;;;;;;5001952;28;20045;-79
2021/12/05 07:48:12;;;;;;;7.97;1.88;;;;;;;;;;5017893;28;20458;-80
2021/12/05 07:50:52;;;;;;;6.20;1.65;;;;;;;;;;5020201;28;20100;-82
2021/12/05 07:53:35;;;;;;;7.32;2.00;;;;;;;;;;5004351;28;20042;-80
2021/12/05 07:56:10;;;;;;;6.97;1.63;;;;;;;;;;5005264;28;20038;-81
2021/12/05 08:15:07;;;;;;;7.15;1.77;;;;;;;;;;5017608;28;20042;-80
2021/12/05 08:17:33;;;;;;;8.20;1.95;;;;;;;;;;5002634;28;20102;-80
2021/12/05 08:19:59;;;;;;;5.63;1.58;;;;;;;;;;5000389;28;20030;-80
2021/12/05 08:22:25;;;;;;;10.32;1.83;;;;;;;;;;5000088;28;20085;-80
2021/12/05 08:24:51;;;;;;;6.22;2.05;;;;;;;;;;5000358;28;20053;-80
2021/12/05 08:27:17;;;;;;;14.20;1.88;;;;;;;;;;5017200;28;20045;-80
2021/12/05 08:29:48;;;;;;;8.93;1.77;;;;;;;;;;5023115;28;20045;-79
2021/12/05 08:37:48;;;;;;;8.00;1.60;;;;;;;;;;5017858;28;20068;-80
2021/12/05 08:40:39;;;;;;;5.32;1.40;;;;;;;;;;5018286;28;20051;-81
2021/12/05 08:46:22;;;;;;;6.10;1.65;;;;;;;;;;5011492;28;20125;-80
2021/12/05 09:22:49;;;;;;;4.32;1.42;;;;;;;;;;5023397;28;20049;-80
2021/12/05 09:38:39;;;;;;;6.78;1.70;;;;;;;;;;5024197;28;20094;-81
2021/12/05 09:38:58;;;;;;;4.88;1.27;;;;;;;;;;5024836;28;20117;-84
2021/12/05 10:03:23;;;;;;;6.50;1.80;;;;;;;;;;5018607;28;20062;-81
2021/12/05 10:08:49;;;;;;;4.82;1.67;;;;;;;;;;5020061;28;20037;-82
2021/12/05 10:20:21;;;;;;;3.67;1.45;;;;;;;;;;5020858;28;20454;-82
2021/12/05 10:33:49;;;;;;;5.35;1.15;;;;;;;;;;5020720;28;20050;-81
2021/12/05 10:36:27;;;;;;;4.53;1.55;;;;;;;;;;5006977;28;20065;-81
2021/12/05 10:38:57;;;;;;;8.10;1.33;;;;;;;;;;5012807;28;20106;-82
2021/12/05 10:44:00;;;;;;;5.93;2.05;;;;;;;;;;5019825;28;20038;-83
2021/12/05 10:46:27;;;;;;;3.45;1.35;;;;;;;;;;5031190;28;20370;-83
2021/12/05 10:48:53;;;;;;;5.45;1.60;;;;;;;;;;5005070;28;20121;-81
2021/12/05 10:51:27;;;;;;;2.70;1.20;;;;;;;;;;5019929;28;20409;-81
2021/12/05 10:53:59;;;;;;;3.40;1.20;;;;;;;;;;5019383;28;20038;-81
2021/12/05 10:56:29;;;;;;;2.58;1.10;;;;;;;;;;5019291;28;20588;-83
2021/12/05 10:59:09;;;;;;;6.03;1.10;;;;;;;;;;5003023;28;20096;-81
2021/12/05 11:01:45;;;;;;;4.30;1.20;;;;;;;;;;5019747;28;20044;-82
2021/12/05 11:04:13;;;;;;;3.13;1.05;;;;;;;;;;5020508;28;20056;-82
2021/12/05 11:06:50;;;;;;;2.80;1.20;;;;;;;;;;5019471;28;20054;-83
2021/12/05 11:09:32;;;;;;;4.43;1.13;;;;;;;;;;5003980;28;20077;-81
2021/12/05 11:12:01;;;;;;;3.08;1.55;;;;;;;;;;5019082;28;20116;-81
2021/12/05 11:14:31;;;;;;;5.18;1.27;;;;;;;;;;5019037;28;20101;-80
2021/12/05 11:17:01;;;;;;;3.25;0.90;;;;;;;;;;5018464;28;20177;-83
2021/12/05 11:19:29;;;;;;;4.30;1.25;;;;;;;;;;5019361;28;20077;-81
2021/12/05 11:22:03;;;;;;;2.13;1.10;;;;;;;;;;5018783;28;20050;-82
2021/12/05 11:24:33;;;;;;;5.57;1.20;;;;;;;;;;5018865;28;20045;-80
2021/12/05 11:27:02;;;;;;;1.90;0.90;;;;;;;;;;5018758;28;20086;-82
2021/12/05 11:29:41;;;;;;;3.30;1.00;;;;;;;;;;5019372;28;20046;-80
2021/12/05 11:32:11;;;;;;;5.18;1.02;;;;;;;;;;5019080;28;20386;-82
2021/12/05 11:34:37;;;;;;;7.47;1.30;;;;;;;;;;5002201;28;20045;-80
2021/12/05 11:37:03;;;;;;;4.18;1.42;;;;;;;;;;5017571;28;20343;-80
2021/12/05 11:39:29;;;;;;;3.38;1.15;;;;;;;;;;5018563;28;20037;-80
2021/12/05 11:41:56;;;;;;;2.28;1.15;;;;;;;;;;5017624;28;20048;-81
2021/12/05 11:44:22;;;;;;;4.40;1.00;;;;;;;;;;5016912;28;20421;-81
2021/12/05 11:46:48;;;;;;;3.13;1.33;;;;;;;;;;5020431;28;20048;-81
2021/12/05 11:49:17;;;;;;;3.40;1.38;;;;;;;;;;5024733;28;20065;-81
2021/12/05 11:51:57;;;;;;;2.47;1.10;;;;;;;;;;5014120;28;20049;-80
2021/12/05 11:54:27;;;;;;;3.95;1.20;;;;;;;;;;5029791;28;20096;-82
2021/12/05 11:56:58;;;;;;;6.32;1.27;;;;;;;;;;5021780;28;20117;-83
2021/12/05 11:59:24;;;;;;;4.57;1.20;;;;;;;;;;5004687;28;20056;-82
2021/12/05 12:02:05;;;;;;;2.30;0.95;;;;;;;;;;5020569;28;20053;-82
2021/12/05 12:04:39;;;;;;;3.00;1.00;;;;;;;;;;5020620;28;20391;-82
2021/12/05 12:07:31;;;;;;;2.40;1.10;;;;;;;;;;5022015;28;20048;-83
2021/12/05 12:10:02;;;;;;;1.88;0.90;;;;;;;;;;5020898;28;20121;-82
2021/12/05 12:12:28;;;;;;;2.17;1.10;;;;;;;;;;5027319;28;20053;-81
2021/12/05 12:14:55;;;;;;;1.90;0.68;;;;;;;;;;5029353;28;20060;-83
2021/12/05 12:17:21;;;;;;;2.25;0.88;;;;;;;;;;5011786;28;20056;-81
2021/12/05 12:19:48;;;;;;;3.22;1.10;;;;;;;;;;5011933;28;20029;-82
2021/12/05 12:22:14;;;;;;;2.10;1.38;;;;;;;;;;5022021;28;20046;-81
2021/12/05 12:24:40;;;;;;;2.05;0.90;;;;;;;;;;5004929;28;20041;-83
2021/12/05 12:27:07;;;;;;;2.20;0.90;;;;;;;;;;5021728;28;20041;-82
2021/12/05 12:29:33;;;;;;;2.75;1.00;;;;;;;;;;5021463;28;20042;-82
2021/12/05 12:32:01;;;;;;;3.60;1.20;;;;;;;;;;5021460;28;20052;-83
2021/12/05 12:34:27;;;;;;;2.47;0.90;;;;;;;;;;5023491;28;20034;-82
2021/12/05 12:36:55;;;;;;;3.47;1.08;;;;;;;;;;5004850;28;20100;-81
2021/12/05 12:39:22;;;;;;;3.83;1.38;;;;;;;;;;5021561;28;20104;-83
2021/12/05 12:42:04;;;;;;;2.88;1.10;;;;;;;;;;5022056;28;20045;-83
2021/12/05 12:44:30;;;;;;;3.33;1.05;;;;;;;;;;5010972;28;20093;-84
2021/12/05 12:46:57;;;;;;;1.95;1.00;;;;;;;;;;5029302;28;20053;-83
2021/12/05 12:49:33;;;;;;;3.95;0.98;;;;;;;;;;5023417;28;20053;-83
2021/12/05 12:52:09;;;;;;;2.35;1.30;;;;;;;;;;5024292;28;20053;-82
2021/12/05 12:54:52;;;;;;;3.42;1.00;;;;;;;;;;5021310;28;20077;-83
2021/12/05 12:57:23;;;;;;;1.20;0.70;;;;;;;;;;5024748;28;20046;-83
2021/12/05 13:00:09;;;;;;;2.58;1.02;;;;;;;;;;5020402;28;20281;-82
2021/12/05 13:02:51;;;;;;;4.40;0.85;;;;;;;;;;5006990;28;20046;-82
2021/12/05 13:10:51;;;;;;;2.60;1.02;;;;;;;;;;5019289;28;20049;-82
2021/12/05 13:13:21;;;;;;;2.47;0.93;;;;;;;;;;5026793;28;20038;-82
2021/12/05 13:15:50;;;;;;;1.70;0.65;;;;;;;;;;5014618;28;20069;-83
2021/12/05 13:18:29;;;;;;;1.63;0.90;;;;;;;;;;5009591;28;20084;-83
2021/12/05 13:21:09;;;;;;;1.67;0.60;;;;;;;;;;5019928;28;20037;-83
2021/12/05 13:23:43;;;;;;;3.38;0.90;;;;;;;;;;5019483;28;20042;-81
2021/12/05 13:26:15;;;;;;;1.60;0.70;;;;;;;;;;5019517;28;20038;-81
2021/12/05 13:28:47;;;;;;;3.35;0.98;;;;;;;;;;5021378;28;20088;-79
2021/12/05 13:31:39;;;;;;;3.47;1.20;;;;;;;;;;5026498;28;20061;-81
2021/12/05 13:34:18;;;;;;;1.77;0.80;;;;;;;;;;5011283;28;20096;-82
2021/12/05 13:36:49;;;;;;;2.60;1.02;;;;;;;;;;5022056;28;20065;-81
2021/12/05 13:39:35;;;;;;;1.73;0.85;;;;;;;;;;5002986;28;20049;-82
2021/12/05 13:42:08;;;;;;;3.28;1.02;;;;;;;;;;5019876;28;20454;-81
2021/12/05 13:44:52;;;;;;;2.92;1.00;;;;;;;;;;5021927;28;20041;-81
2021/12/05 13:47:19;;;;;;;4.03;1.40;;;;;;;;;;5022458;28;20053;-81
2021/12/05 13:49:47;;;;;;;5.75;1.00;;;;;;;;;;5021147;28;20049;-81
2021/12/05 13:52:32;;;;;;;2.53;1.00;;;;;;;;;;5004348;28;20041;-81
2021/12/05 13:55:17;;;;;;;3.72;1.02;;;;;;;;;;5021545;28;20046;-82
2021/12/05 13:58:02;;;;;;;1.77;0.95;;;;;;;;;;5021900;28;20042;-82
2021/12/05 14:00:58;;;;;;;3.88;1.38;;;;;;;;;;5021948;28;20042;-82
2021/12/05 14:03:44;;;;;;;2.85;1.10;;;;;;;;;;5028509;28;20425;-81
2021/12/05 14:06:26;;;;;;;2.60;0.88;;;;;;;;;;5023290;28;20109;-81
2021/12/05 14:08:56;;;;;;;3.03;1.15;;;;;;;;;;5025046;28;20037;-83
2021/12/05 14:11:26;;;;;;;2.35;1.05;;;;;;;;;;5024707;28;20060;-79
2021/12/05 14:13:52;;;;;;;2.25;1.00;;;;;;;;;;5018237;28;20057;-81
2021/12/05 14:16:18;;;;;;;5.53;1.58;;;;;;;;;;5006650;28;20068;-81
2021/12/05 14:18:44;;;;;;;4.32;1.75;;;;;;;;;;5008114;28;20045;-83
2021/12/05 14:21:11;;;;;;;3.42;1.35;;;;;;;;;;5006265;28;20038;-83
2021/12/05 14:23:37;;;;;;;2.60;1.20;;;;;;;;;;5004559;28;20065;-82
2021/12/05 14:26:13;;;;;;;4.63;1.08;;;;;;;;;;5021152;28;20045;-82
2021/12/05 14:28:39;;;;;;;2.33;1.10;;;;;;;;;;5020768;28;20044;-82
2021/12/05 14:31:06;;;;;;;4.93;1.83;;;;;;;;;;5004108;28;20121;-81
2021/12/05 14:33:46;;;;;;;3.03;1.48;;;;;;;;;;5003452;28;20323;-82
2021/12/05 14:36:19;;;;;;;2.50;1.10;;;;;;;;;;5004566;28;20037;-81
2021/12/05 14:38:46;;;;;;;2.83;1.10;;;;;;;;;;5020396;28;20057;-82
2021/12/05 14:41:12;;;;;;;2.47;1.10;;;;;;;;;;5020305;28;20101;-81
2021/12/05 14:43:37;;;;;;;2.95;1.35;;;;;;;;;;5020210;28;20482;-82
2021/12/05 14:46:03;;;;;;;4.00;1.27;;;;;;;;;;5003676;28;20033;-82
2021/12/05 14:48:30;;;;;;;3.83;1.60;;;;;;;;;;5020005;28;20053;-82
2021/12/05 14:50:58;;;;;;;3.60;1.20;;;;;;;;;;5019877;28;20427;-81
2021/12/05 14:53:24;;;;;;;3.35;1.50;;;;;;;;;;5019782;28;20553;-81
2021/12/05 14:55:56;;;;;;;2.70;1.63;;;;;;;;;;5020758;28;20038;-82
2021/12/05 14:58:22;;;;;;;4.00;1.55;;;;;;;;;;5021290;28;20045;-82
2021/12/05 15:00:51;;;;;;;6.13;2.65;;;;;;;;;;5004175;28;20034;-81
2021/12/05 15:03:18;;;;;;;3.67;1.90;;;;;;;;;;5004232;28;20085;-80
2021/12/05 15:05:45;;;;;;;4.20;1.92;;;;;;;;;;5021439;28;20038;-81
2021/12/05 15:08:12;;;;;;;8.00;2.50;;;;;;;;;;5015254;28;20056;-82
2021/12/05 15:10:38;;;;;;;5.05;2.33;;;;;;;;;;5005063;28;20096;-82
2021/12/05 15:13:04;;;;;;;4.75;2.53;;;;;;;;;;5005621;28;20454;-82
2021/12/05 15:15:30;;;;;;;5.22;2.15;;;;;;;;;;5022801;28;20045;-80
2021/12/05 15:17:56;;;;;;;5.32;1.60;;;;;;;;;;5003742;28;20065;-81
2021/12/05 15:20:23;;;;;;;2.90;1.50;;;;;;;;;;5003877;28;20565;-81
2021/12/05 15:23:00;;;;;;;4.43;2.00;;;;;;;;;;5019243;28;20466;-81
2021/12/05 15:25:29;;;;;;;3.42;1.67;;;;;;;;;;5018982;28;20042;-81
2021/12/05 15:27:55;;;;;;;2.70;1.23;;;;;;;;;;5019096;28;20038;-82
2021/12/05 15:30:31;;;;;;;1.92;1.30;;;;;;;;;;5019124;28;20058;-81
2021/12/05 15:33:01;;;;;;;3.40;1.45;;;;;;;;;;5019234;28;20037;-80
2021/12/05 15:35:28;;;;;;;3.22;1.42;;;;;;;;;;5021307;28;20467;-80
2021/12/05 15:38:21;;;;;;;4.00;1.30;;;;;;;;;;5025059;28;20049;-82
2021/12/05 15:40:47;;;;;;;4.68;1.83;;;;;;;;;;5019749;28;20046;-82
2021/12/05 15:43:14;;;;;;;4.43;1.58;;;;;;;;;;5022121;28;20078;-80
2021/12/05 15:45:42;;;;;;;3.58;1.23;;;;;;;;;;5019878;28;20037;-80
2021/12/05 15:48:08;;;;;;;3.05;1.35;;;;;;;;;;5020130;28;20041;-81
2021/12/05 15:50:34;;;;;;;4.32;1.58;;;;;;;;;;5020626;28;20092;-81
2021/12/05 15:53:02;;;;;;;3.75;1.83;;;;;;;;;;5020575;28;20038;-81
2021/12/05 15:55:32;;;;;;;3.60;1.35;;;;;;;;;;5004229;28;20085;-80
2021/12/05 15:58:03;;;;;;;3.88;1.25;;;;;;;;;;5021003;28;20052;-81
2021/12/05 16:00:31;;;;;;;3.15;1.50;;;;;;;;;;5022481;28;20069;-81
2021/12/05 16:03:07;;;;;;;3.88;1.88;;;;;;;;;;5008903;28;20046;-81
2021/12/05 16:05:33;;;;;;;3.92;1.85;;;;;;;;;;5007761;28;20717;-81
2021/12/05 16:08:03;;;;;;;4.75;2.65;;;;;;;;;;5006133;28;20057;-81
2021/12/05 16:10:30;;;;;;;6.55;2.60;;;;;;;;;;5019687;28;20049;-81
2021/12/05 16:12:56;;;;;;;3.05;1.77;;;;;;;;;;5022488;28;20042;-81
2021/12/05 16:15:25;;;;;;;2.60;1.50;;;;;;;;;;5009920;28;20073;-81
2021/12/05 16:17:58;;;;;;;5.00;2.05;;;;;;;;;;5036606;28;20058;-80
2021/12/05 16:20:24;;;;;;;;;;;;;;;;;;5022109;28;20026;-79
2021/12/05 16:22:54;;;;;;;6.80;3.35;;;;;;;;;;5033788;28;19963;-79
2021/12/05 16:25:21;;;;;;;3.70;2.15;;;;;;;;;;5007547;28;20037;-81
2021/12/05 16:27:48;;;;;;;3.50;2.22;;;;;;;;;;5026812;28;20022;-80
2021/12/05 16:30:33;;;;;;;7.60;2.45;;;;;;;;;;5005415;28;20069;-82
2021/12/05 16:33:00;;;;;;;3.58;1.75;;;;;;;;;;5021524;28;20472;-80
2021/12/05 16:35:29;;;;;;;4.13;2.13;;;;;;;;;;5005172;28;20034;-80
2021/12/05 16:37:55;;;;;;;4.88;1.88;;;;;;;;;;5019491;28;20037;-81
2021/12/05 16:40:21;;;;;;;4.32;2.00;;;;;;;;;;5018712;28;20088;-81
2021/12/05 16:42:47;;;;;;;4.43;2.05;;;;;;;;;;5018184;28;20347;-81
2021/12/05 16:45:13;;;;;;;4.25;2.08;;;;;;;;;;5019817;28;20072;-79
2021/12/05 16:47:39;;;;;;;5.38;2.38;;;;;;;;;;5001526;28;20346;-81
2021/12/05 16:50:07;;;;;;;3.72;1.95;;;;;;;;;;5018983;28;20488;-81
2021/12/05 16:52:39;;;;;;;5.03;2.13;;;;;;;;;;5019584;28;20057;-80
2021/12/05 16:55:12;;;;;;;3.92;2.03;;;;;;;;;;5018153;28;20052;-81
2021/12/05 16:57:46;;;;;;;3.58;2.13;;;;;;;;;;5003644;28;20056;-81
2021/12/05 17:00:17;;;;;;;6.15;1.83;;;;;;;;;;5018810;28;20053;-81
2021/12/05 17:02:44;;;;;;;3.20;1.60;;;;;;;;;;5001931;28;20037;-81
2021/12/05 17:05:18;;;;;;;3.28;1.80;;;;;;;;;;5001762;28;20516;-80
2021/12/05 17:08:16;;;;;;;4.13;1.80;;;;;;;;;;5001465;28;20045;-81
2021/12/05 17:10:42;;;;;;;3.08;1.63;;;;;;;;;;5019123;28;20052;-80
2021/12/05 17:13:13;;;;;;;3.28;1.80;;;;;;;;;;5017492;28;20073;-82
2021/12/05 17:15:48;;;;;;;3.35;1.70;;;;;;;;;;5017818;28;20096;-81
2021/12/05 17:18:15;;;;;;;3.20;1.23;;;;;;;;;;5020458;28;20382;-81
2021/12/05 17:20:49;;;;;;;2.72;1.45;;;;;;;;;;5005470;28;20041;-80
2021/12/05 17:23:19;;;;;;;3.03;1.70;;;;;;;;;;5006034;28;20045;-81
2021/12/05 17:25:47;;;;;;;7.38;3.53;;;;;;;;;;5023641;28;20030;-80
2021/12/05 17:28:14;;;;;;;8.98;5.50;;;;;;;;;;5041180;28;20033;-80
2021/12/05 17:30:54;;;;;;;13.55;5.95;;;;;;;;;;5021919;28;20053;-80
2021/12/05 17:33:26;;;;;;;7.15;4.55;;;;;;;;;;5022597;28;20113;-80
2021/12/05 17:35:52;;;;;;;5.85;3.25;;;;;;;;;;5022683;28;20042;-80
2021/12/05 17:38:29;;;;;;;9.13;2.72;;;;;;;;;;5004999;28;20037;-80
2021/12/05 17:40:55;;;;;;;9.45;4.57;;;;;;;;;;5021868;28;20358;-80
2021/12/05 17:43:21;;;;;;;12.43;4.53;;;;;;;;;;5021138;28;20045;-81
2021/12/05 17:45:47;;;;;;;10.98;5.57;;;;;;;;;;5005279;28;20048;-81
2021/12/05 17:48:13;;;;;;;13.32;6.65;;;;;;;;;;5004918;28;20153;-80
2021/12/05 17:50:41;;;;;;;10.85;6.45;;;;;;;;;;5006924;28;20073;-80
2021/12/05 17:53:07;;;;;;;10.48;5.28;;;;;;;;;;5006209;28;20121;-80
2021/12/05 17:55:41;;;;;;;9.43;5.38;;;;;;;;;;5007281;28;20048;-81
2021/12/05 17:58:20;;;;;;;8.82;5.78;;;;;;;;;;5024515;28;20056;-79
2021/12/05 18:00:58;;;;;;;10.93;6.03;;;;;;;;;;5025751;28;20061;-80
2021/12/05 18:03:24;;;;;;;10.38;6.57;;;;;;;;;;5023823;28;20109;-80
2021/12/05 18:05:50;;;;;;;11.63;5.43;;;;;;;;;;5022856;28;20089;-80
2021/12/05 18:08:18;;;;;;;13.68;6.43;;;;;;;;;;5003681;28;20048;-79
2021/12/05 18:10:48;;;;;;;11.43;5.82;;;;;;;;;;5020117;28;20422;-79
2021/12/05 18:13:14;;;;;;;7.93;5.22;;;;;;;;;;5022130;28;20054;-81
2021/12/05 18:15:49;;;;;;;11.75;4.70;;;;;;;;;;5006128;28;20034;-81
2021/12/05 18:18:16;;;;;;;9.85;5.63;;;;;;;;;;5022622;28;20358;-81
2021/12/05 18:20:42;;;;;;;13.40;5.18;;;;;;;;;;5024297;28;20042;-81
2021/12/05 18:23:08;;;;;;;6.07;3.97;;;;;;;;;;5005635;28;20042;-81
2021/12/05 18:25:35;;;;;;;6.55;3.75;;;;;;;;;;5013776;28;20061;-82
2021/12/05 18:28:01;;;;;;;8.25;4.55;;;;;;;;;;5024191;28;20120;-81
2021/12/05 18:30:27;;;;;;;8.07;4.72;;;;;;;;;;5007049;28;20473;-80
2021/12/05 18:32:53;;;;;;;9.95;5.45;;;;;;;;;;5008202;28;20049;-80
2021/12/05 18:35:19;;;;;;;8.93;5.07;;;;;;;;;;5025419;28;20041;-82
2021/12/05 18:37:46;;;;;;;11.77;6.07;;;;;;;;;;5025890;28;20038;-79
2021/12/05 18:40:12;;;;;;;14.10;8.32;;;;;;;;;;5009019;28;20041;-81
2021/12/05 18:42:38;;;;;;;10.23;4.57;;;;;;;;;;5025515;28;20041;-81
2021/12/05 18:45:06;;;;;;;13.90;4.50;;;;;;;;;;5026610;28;20401;-81
2021/12/05 18:47:32;;;;;;;12.75;5.13;;;;;;;;;;5025129;28;20373;-80
2021/12/05 18:49:58;;;;;;;9.23;5.82;;;;;;;;;;5022821;28;20049;-80
2021/12/05 18:52:24;;;;;;;8.15;5.68;;;;;;;;;;5023446;28;20405;-80
2021/12/05 18:54:51;;;;;;;10.43;6.13;;;;;;;;;;5022321;28;20513;-80
2021/12/05 18:57:21;;;;;;;10.93;6.97;;;;;;;;;;5005376;28;20034;-80
2021/12/05 18:59:59;;;;;;;12.57;6.90;;;;;;;;;;5021512;28;20355;-82
2021/12/05 19:05:13;;;;;;;14.60;7.65;;;;;;;;;;5022422;28;20041;-82
2021/12/05 19:08:03;;;;;;;7.82;5.18;;;;;;;;;;5023207;28;20042;-83
2021/12/05 19:13:14;;;;;;;12.40;6.72;;;;;;;;;;5022215;28;20041;-80
2021/12/05 19:15:40;;;;;;;20.17;13.32;;;;;;;;;;5023615;28;20034;-80
2021/12/05 19:18:06;;;;;;;11.82;8.73;;;;;;;;;;5008880;28;20053;-81
2021/12/05 19:20:32;;;;;;;17.63;10.23;;;;;;;;;;5012074;28;20042;-80
2021/12/05 19:22:59;;;;;;;14.07;8.32;;;;;;;;;;5024774;28;20081;-81
2021/12/05 19:25:29;;;;;;;11.80;6.75;;;;;;;;;;5008033;28;20453;-77
2021/12/05 19:27:56;;;;;;;12.68;6.75;;;;;;;;;;5009022;28;20121;-79
2021/12/05 19:30:24;;;;;;;9.10;6.25;;;;;;;;;;5010376;28;20125;-81
2021/12/05 19:32:50;;;;;;;11.63;8.30;;;;;;;;;;5006578;28;20105;-81
2021/12/05 19:35:16;;;;;;;10.75;7.55;;;;;;;;;;5005009;28;20030;-79
2021/12/05 19:37:43;;;;;;;14.55;10.32;;;;;;;;;;5005351;28;20073;-80
2021/12/05 19:40:10;;;;;;;20.58;8.40;;;;;;;;;;5021812;28;20370;-79
2021/12/05 19:42:36;;;;;;;13.35;7.97;;;;;;;;;;5020188;28;20045;-80
2021/12/05 19:45:02;;;;;;;16.80;7.82;;;;;;;;;;5003950;28;20090;-80
2021/12/05 19:47:28;;;;;;;12.07;8.10;;;;;;;;;;5020369;28;20064;-79
2021/12/05 19:49:54;;;;;;;11.77;7.82;;;;;;;;;;5019564;28;20075;-81
2021/12/05 19:52:20;;;;;;;11.20;7.78;;;;;;;;;;5003381;28;20072;-82
2021/12/05 19:54:47;;;;;;;13.10;7.63;;;;;;;;;;5004691;28;20037;-81
2021/12/05 19:57:13;;;;;;;13.07;9.00;;;;;;;;;;5020770;28;20121;-80
2021/12/05 19:59:39;;;;;;;13.40;8.18;;;;;;;;;;5020474;28;20062;-80
2021/12/05 20:02:06;;;;;;;40.03;20.45;;;;;;;;;;5020233;28;20076;-81